Time;durP1;ratioP1;P1;durP2;ratioP2;P2;SDS_P1;SDS_P2;PMS_P1;PMS_P2;Temp;Humidity;BMP_temperature;BMP_pressure;BME280_temperature;BME280_humidity;BME280_pressure;Samples;Min_cycle;Max_cycle;Signal;HPM_P1;HPM_P2
2021/07/17 00:01:04;;;;;;;;;;;26.90;99.90;;;;;;1866452;75;20229;-93
2021/07/17 00:03:33;;;;;;;;;;;26.90;99.90;;;;;;1824742;78;20207;-92
2021/07/17 00:06:04;;;;;;;;;;;26.90;99.90;;;;;;1829146;78;20215;-92
2021/07/17 00:08:34;;;;;;;;;;;27.00;99.90;;;;;;1876035;75;20413;-92
2021/07/17 00:11:06;;;;;;;;;;;27.10;99.90;;;;;;1842728;77;20215;-91
2021/07/17 00:13:36;;;;;;;;;;;27.10;99.90;;;;;;1847533;77;20167;-86
2021/07/17 00:16:07;;;;;;;;;;;27.10;99.90;;;;;;1824789;78;20490;-82
2021/07/17 00:18:39;;;;;;;;;;;27.20;99.90;;;;;;1849151;76;20476;-81
2021/07/17 00:21:09;;;;;;;;;;;27.20;99.90;;;;;;1831861;77;20343;-83
2021/07/17 00:23:39;;;;;;;;;;;27.20;99.90;;;;;;1840689;77;20593;-79
2021/07/17 00:26:09;;;;;;;;;;;27.20;99.90;;;;;;1848260;77;20206;-80
2021/07/17 00:28:38;;;;;;;;;;;27.30;99.90;;;;;;1862253;76;20216;-81
2021/07/17 00:31:08;;;;;;;;;;;27.20;99.90;;;;;;1834489;76;20546;-81
2021/07/17 00:33:38;;;;;;;;;;;27.30;99.90;;;;;;1828030;77;20187;-84
2021/07/17 00:36:11;;;;;;;;;;;27.30;99.90;;;;;;1854430;77;20169;-80
2021/07/17 00:38:41;;;;;;;;;;;27.40;99.90;;;;;;1874184;75;20531;-80
2021/07/17 00:41:18;;;;;;;;;;;27.40;99.90;;;;;;1861799;75;20140;-80
2021/07/17 00:43:52;;;;;;;;;;;27.40;99.90;;;;;;1868702;75;20570;-80
2021/07/17 00:46:22;;;;;;;;;;;27.50;99.90;;;;;;1875412;75;20195;-80
2021/07/17 00:48:53;;;;;;;;;;;27.50;99.90;;;;;;1819277;78;20183;-79
2021/07/17 00:51:25;;;;;;;;;;;27.60;99.90;;;;;;1831457;78;20242;-79
2021/07/17 00:53:53;;;;;;;;;;;27.60;99.90;;;;;;1846243;77;20495;-80
2021/07/17 00:56:25;;;;;;;;;;;27.70;99.90;;;;;;1842075;77;20203;-80
2021/07/17 00:58:58;;;;;;;;;;;27.70;99.90;;;;;;1842854;77;20255;-80
2021/07/17 01:01:28;;;;;;;;;;;27.70;99.90;;;;;;1809769;78;20169;-80
2021/07/17 01:03:59;;;;;;;;;;;27.80;99.90;;;;;;1811064;78;20181;-80
2021/07/17 01:06:28;;;;;;;;;;;27.80;99.90;;;;;;1840877;75;20192;-80
2021/07/17 01:08:58;;;;;;;;;;;27.90;99.90;;;;;;1873497;75;20187;-80
2021/07/17 01:11:28;;;;;;;;;;;27.90;99.90;;;;;;1863380;76;20177;-79
2021/07/17 01:13:57;;;;;;;;;;;28.00;99.90;;;;;;1866386;75;20122;-80
2021/07/17 01:16:27;;;;;;;;;;;28.00;99.90;;;;;;1864945;77;20200;-80
2021/07/17 01:18:57;;;;;;;;;;;28.10;99.90;;;;;;1867181;76;20487;-80
2021/07/17 01:21:27;;;;;;;;;;;28.20;99.90;;;;;;1863938;76;20459;-80
2021/07/17 01:23:57;;;;;;;;;;;28.20;99.90;;;;;;1862500;76;20158;-80
2021/07/17 01:26:27;;;;;;;;;;;28.30;99.90;;;;;;1867852;76;20201;-80
2021/07/17 01:28:57;;;;;;;;;;;28.40;99.50;;;;;;1872191;75;20171;-80
2021/07/17 01:31:28;;;;;;;;;;;28.40;99.20;;;;;;1868586;75;20134;-79
2021/07/17 01:33:58;;;;;;;;;;;28.60;99.30;;;;;;1868515;76;20135;-79
2021/07/17 01:36:27;;;;;;;;;;;28.60;98.50;;;;;;1868662;76;20228;-81
2021/07/17 01:38:57;;;;;;;;;;;28.70;98.40;;;;;;1863730;75;20669;-79
2021/07/17 01:41:31;;;;;;;;;;;28.80;97.80;;;;;;1869438;75;20203;-80
2021/07/17 01:44:01;;;;;;;;;;;28.90;97.90;;;;;;1874001;75;20225;-81
2021/07/17 01:46:32;;;;;;;;;;;29.00;97.70;;;;;;1867981;76;20228;-80
2021/07/17 01:49:05;;;;;;;;;;;29.00;97.80;;;;;;1871753;75;20174;-79
2021/07/17 01:51:35;;;;;;;;;;;29.20;97.10;;;;;;1869536;74;20266;-81
2021/07/17 01:54:05;;;;;;;;;;;29.20;97.00;;;;;;1892942;74;20490;-80
2021/07/17 01:56:35;;;;;;;;;;;29.30;97.20;;;;;;1889151;74;20227;-80
2021/07/17 01:59:05;;;;;;;;;;;29.40;96.90;;;;;;1895762;74;20435;-79
2021/07/17 02:01:38;;;;;;;;;;;29.50;96.20;;;;;;1859860;75;20125;-81
2021/07/17 02:04:09;;;;;;;;;;;29.60;96.20;;;;;;1895993;74;20307;-79
2021/07/17 02:06:40;;;;;;;;;;;29.60;96.20;;;;;;1901877;74;20469;-79
2021/07/17 02:09:10;;;;;;;;;;;29.60;96.00;;;;;;1893130;74;20218;-79
2021/07/17 02:11:40;;;;;;;;;;;29.60;95.60;;;;;;1898337;74;20276;-81
2021/07/17 02:14:10;;;;;;;;;;;29.70;96.90;;;;;;1902076;74;20222;-80
2021/07/17 02:16:40;;;;;;;;;;;29.70;96.00;;;;;;1890272;74;20179;-80
2021/07/17 02:19:14;;;;;;;;;;;29.90;95.30;;;;;;1895919;74;20470;-80
2021/07/17 02:21:42;;;;;;;;;;;30.00;95.30;;;;;;1905906;74;20825;-80
2021/07/17 02:24:12;;;;;;;;;;;30.10;95.10;;;;;;1867072;75;20182;-80
2021/07/17 02:26:43;;;;;;;;;;;30.20;94.70;;;;;;1829700;77;20195;-79
2021/07/17 02:29:13;;;;;;;;;;;30.20;94.70;;;;;;1837071;77;20352;-80
2021/07/17 02:31:44;;;;;;;;;;;30.30;94.70;;;;;;1824678;78;20144;-79
2021/07/17 02:34:14;;;;;;;;;;;30.30;94.70;;;;;;1870923;75;20190;-80
2021/07/17 02:36:43;;;;;;;;;;;30.50;94.00;;;;;;1863990;75;20616;-79
2021/07/17 02:39:14;;;;;;;;;;;30.50;93.70;;;;;;1846765;77;20232;-79
2021/07/17 02:41:47;;;;;;;;;;;30.60;93.40;;;;;;1861120;76;20607;-79
2021/07/17 02:44:17;;;;;;;;;;;30.70;93.30;;;;;;1847360;77;20180;-80
2021/07/17 02:46:46;;;;;;;;;;;30.80;92.60;;;;;;1828736;78;20141;-78
2021/07/17 02:49:16;;;;;;;;;;;30.80;92.80;;;;;;1832299;77;20169;-80
2021/07/17 02:51:46;;;;;;;;;;;30.90;92.30;;;;;;1874994;75;20220;-80
2021/07/17 02:54:16;;;;;;;;;;;31.00;91.60;;;;;;1885572;75;20264;-78
2021/07/17 02:56:46;;;;;;;;;;;31.00;91.60;;;;;;1895097;75;20214;-79
2021/07/17 02:59:16;;;;;;;;;;;31.10;91.70;;;;;;1877847;75;20247;-79
2021/07/17 03:01:46;;;;;;;;;;;31.10;90.70;;;;;;1878557;75;20335;-80
2021/07/17 03:04:16;;;;;;;;;;;31.00;90.90;;;;;;1885447;75;20173;-79
2021/07/17 03:06:46;;;;;;;;;;;31.00;90.80;;;;;;1887897;75;20163;-80
2021/07/17 03:09:16;;;;;;;;;;;31.00;90.90;;;;;;1924633;74;20248;-80
2021/07/17 03:11:45;;;;;;;;;;;31.00;91.10;;;;;;1919788;74;20254;-79
2021/07/17 03:14:15;;;;;;;;;;;31.10;91.10;;;;;;1923742;74;20173;-80
2021/07/17 03:16:45;;;;;;;;;;;31.10;90.90;;;;;;1913120;74;20131;-80
2021/07/17 03:19:15;;;;;;;;;;;31.10;91.00;;;;;;1921889;74;20188;-82
2021/07/17 03:21:47;;;;;;;;;;;31.10;90.00;;;;;;1916858;74;20285;-80
2021/07/17 03:24:21;;;;;;;;;;;31.00;90.80;;;;;;1916590;74;20212;-80
2021/07/17 03:26:48;;;;;;;;;;;31.00;90.50;;;;;;1916348;74;20201;-80
2021/07/17 03:29:18;;;;;;;;;;;31.10;90.00;;;;;;1879736;75;20174;-78
2021/07/17 03:31:50;;;;;;;;;;;31.10;88.50;;;;;;1885485;75;20235;-79
2021/07/17 03:34:23;;;;;;;;;;;31.10;89.50;;;;;;1882587;75;20484;-80
2021/07/17 03:36:53;;;;;;;;;;;31.10;89.50;;;;;;1878412;75;20240;-79
2021/07/17 03:39:29;;;;;;;;;;;31.20;90.50;;;;;;1854434;75;20242;-82
2021/07/17 03:42:03;;;;;;;;;;;31.30;87.20;;;;;;1882377;75;20194;-80
2021/07/17 03:44:32;;;;;;;;;;;31.50;86.50;;;;;;1885259;75;20359;-78
2021/07/17 03:47:02;;;;;;;;;;;31.60;86.60;;;;;;1887731;75;20185;-80
2021/07/17 03:49:32;;;;;;;;;;;31.70;88.60;;;;;;1877547;75;20201;-77
2021/07/17 03:52:01;;;;;;;;;;;31.80;87.10;;;;;;1889097;75;20202;-77
2021/07/17 03:54:31;;;;;;;;;;;31.90;88.30;;;;;;1880153;75;20282;-78
2021/07/17 03:57:01;;;;;;;;;;;32.00;87.80;;;;;;1852569;77;20233;-78
2021/07/17 03:59:31;;;;;;;;;;;32.00;86.00;;;;;;1832601;77;20169;-79
2021/07/17 04:02:02;;;;;;;;;;;32.00;86.00;;;;;;1859772;76;20177;-78
2021/07/17 04:04:39;;;;;;;;;;;32.00;86.00;;;;;;1879634;75;20465;-79
2021/07/17 04:07:04;;;;;;;;;;;32.00;85.70;;;;;;1838220;77;20215;-77
2021/07/17 04:09:34;;;;;;;;;;;32.00;85.10;;;;;;1883636;74;20331;-78
2021/07/17 04:12:04;;;;;;;;;;;32.20;81.20;;;;;;1850066;77;20362;-77
2021/07/17 04:14:38;;;;;;;;;;;32.20;83.50;;;;;;1862993;76;20253;-77
2021/07/17 04:17:08;;;;;;;;;;;32.40;82.30;;;;;;1858935;76;20198;-76
2021/07/17 04:19:38;;;;;;;;;;;32.40;82.80;;;;;;1850731;77;20177;-76
2021/07/17 04:22:08;;;;;;;;;;;32.60;84.20;;;;;;1858821;76;20172;-77
2021/07/17 04:24:37;;;;;;;;;;;32.60;79.30;;;;;;1906768;75;20260;-77
2021/07/17 04:27:07;;;;;;;;;;;32.50;81.00;;;;;;1868034;76;20253;-77
2021/07/17 04:29:37;;;;;;;;;;;32.30;82.90;;;;;;1933252;73;20283;-76
2021/07/17 04:32:07;;;;;;;;;;;32.20;84.50;;;;;;1929865;73;20179;-77
2021/07/17 04:34:37;;;;;;;;;;;32.10;83.80;;;;;;1930511;73;20185;-77
2021/07/17 04:37:07;;;;;;;;;;;32.10;84.50;;;;;;1934011;73;20200;-77
2021/07/17 04:39:37;;;;;;;;;;;32.20;84.30;;;;;;1931837;73;20565;-77
2021/07/17 04:42:07;;;;;;;;;;;32.30;83.30;;;;;;1924466;73;20204;-76
2021/07/17 04:44:37;;;;;;;;;;;32.40;82.80;;;;;;1930237;73;20290;-76
2021/07/17 04:47:06;;;;;;;;;;;32.40;82.70;;;;;;1926353;73;20311;-77
2021/07/17 04:49:36;;;;;;;;;;;32.60;83.00;;;;;;1896596;75;20246;-78
2021/07/17 04:52:06;;;;;;;;;;;32.70;81.30;;;;;;1891102;75;20599;-78
2021/07/17 04:54:36;;;;;;;;;;;32.90;81.20;;;;;;1866796;75;20131;-77
2021/07/17 04:57:06;;;;;;;;;;;32.80;80.80;;;;;;1851612;77;20165;-77
2021/07/17 04:59:35;;;;;;;;;;;32.70;81.80;;;;;;1867377;76;20185;-77
2021/07/17 05:02:05;;;;;;;;;;;32.40;82.20;;;;;;1861360;77;20200;-77
2021/07/17 05:04:35;;;;;;;;;;;32.30;83.00;;;;;;1856872;77;20213;-77
2021/07/17 05:07:05;;;;;;;;;;;32.40;82.20;;;;;;1825817;77;20212;-77
2021/07/17 05:09:35;;;;;;;;;;;32.50;83.80;;;;;;1834343;78;20475;-78
2021/07/17 05:12:05;;;;;;;;;;;32.70;80.30;;;;;;1866939;77;20219;-76
2021/07/17 05:14:35;;;;;;;;;;;32.80;81.20;;;;;;1865951;77;20134;-77
2021/07/17 05:17:05;;;;;;;;;;;32.90;80.40;;;;;;1867984;75;20169;-77
2021/07/17 05:19:34;;;;;;;;;;;33.00;79.60;;;;;;1867309;77;20466;-77
2021/07/17 05:22:04;;;;;;;;;;;33.20;78.80;;;;;;1869969;77;20673;-77
2021/07/17 05:24:33;;;;;;;;;;;33.30;78.90;;;;;;1837880;78;20184;-78
2021/07/17 05:27:03;;;;;;;;;;;33.30;79.30;;;;;;1863880;77;20177;-77
2021/07/17 05:29:33;;;;;;;;;;;33.40;75.70;;;;;;1854734;77;20165;-77
2021/07/17 05:32:04;;;;;;;;;;;33.40;74.80;;;;;;1864874;75;20223;-78
2021/07/17 05:34:34;;;;;;;;;;;33.40;73.80;;;;;;1862228;77;20221;-77
2021/07/17 05:37:04;;;;;;;;;;;33.40;73.70;;;;;;1829772;78;20187;-77
2021/07/17 05:39:34;;;;;;;;;;;33.50;73.50;;;;;;1867422;76;20181;-76
2021/07/17 05:42:04;;;;;;;;;;;33.50;73.00;;;;;;1880611;76;20443;-79
2021/07/17 05:44:34;;;;;;;;;;;33.50;71.90;;;;;;1878740;76;20183;-77
2021/07/17 05:47:04;;;;;;;;;;;33.60;73.00;;;;;;1859092;77;20227;-77
2021/07/17 05:49:34;;;;;;;;;;;33.60;72.00;;;;;;1848424;77;20197;-79
2021/07/17 05:52:04;;;;;;;;;;;33.60;72.50;;;;;;1858900;76;20259;-77
2021/07/17 05:54:34;;;;;;;;;;;33.70;71.80;;;;;;1851920;75;20187;-77
2021/07/17 05:57:04;;;;;;;;;;;33.70;72.70;;;;;;1848141;76;20217;-78
2021/07/17 05:59:33;;;;;;;;;;;33.70;72.90;;;;;;1849556;77;20678;-76
2021/07/17 06:02:04;;;;;;;;;;;33.70;72.40;;;;;;1885835;76;20468;-77
2021/07/17 06:04:35;;;;;;;;;;;33.60;73.50;;;;;;1887761;76;20242;-77
2021/07/17 06:07:04;;;;;;;;;;;33.60;71.40;;;;;;1898115;74;20297;-76
2021/07/17 06:09:36;;;;;;;;;;;33.50;73.50;;;;;;1876263;76;20174;-77
2021/07/17 06:12:05;;;;;;;;;;;33.50;72.70;;;;;;1897997;74;20241;-77
2021/07/17 06:14:36;;;;;;;;;;;33.60;72.20;;;;;;1905193;74;20241;-76
2021/07/17 06:17:11;;;;;;;;;;;33.60;71.90;;;;;;1888987;74;20198;-76
2021/07/17 06:19:38;;;;;;;;;;;33.60;73.10;;;;;;1892912;74;20186;-77
2021/07/17 06:22:09;;;;;;;;;;;33.70;72.60;;;;;;1894010;75;20233;-77
2021/07/17 06:24:39;;;;;;;;;;;33.70;71.40;;;;;;1891141;74;20232;-78
2021/07/17 06:27:09;;;;;;;;;;;33.60;71.70;;;;;;1891803;74;20297;-76
2021/07/17 06:29:39;;;;;;;;;;;33.60;71.80;;;;;;1889309;75;20258;-76
2021/07/17 06:32:09;;;;;;;;;;;33.60;72.20;;;;;;1860302;76;20411;-76
2021/07/17 06:34:39;;;;;;;;;;;33.70;73.40;;;;;;1892526;74;20419;-76
2021/07/17 06:37:09;;;;;;;;;;;33.70;71.70;;;;;;1889902;76;20238;-77
2021/07/17 06:39:39;;;;;;;;;;;33.70;72.60;;;;;;1890006;76;20179;-77
2021/07/17 06:42:14;;;;;;;;;;;33.70;73.00;;;;;;1852562;76;20189;-80
2021/07/17 06:44:42;;;;;;;;;;;33.70;74.60;;;;;;1845535;77;20167;-76
2021/07/17 06:47:11;;;;;;;;;;;33.80;72.80;;;;;;1841802;77;20133;-77
2021/07/17 06:49:41;;;;;;;;;;;33.80;72.90;;;;;;1869973;76;20983;-77
2021/07/17 06:52:11;;;;;;;;;;;33.80;72.70;;;;;;1892969;74;20203;-77
2021/07/17 06:54:40;;;;;;;;;;;33.90;70.40;;;;;;1908104;74;20248;-75
2021/07/17 06:57:10;;;;;;;;;;;34.00;70.70;;;;;;1919118;74;20278;-76
2021/07/17 06:59:39;;;;;;;;;;;34.00;71.20;;;;;;1916027;74;20568;-76
2021/07/17 07:02:10;;;;;;;;;;;34.00;70.20;;;;;;1916443;74;20542;-76
2021/07/17 07:04:39;;;;;;;;;;;34.00;71.20;;;;;;1904241;74;20187;-77
2021/07/17 07:07:11;;;;;;;;;;;34.00;70.50;;;;;;1860379;75;20219;-77
2021/07/17 07:09:45;;;;;;;;;;;33.90;70.90;;;;;;1870301;75;20453;-78
2021/07/17 07:12:16;;;;;;;;;;;33.70;71.00;;;;;;1856715;76;20261;-77
2021/07/17 07:14:46;;;;;;;;;;;33.50;72.30;;;;;;1904815;74;20237;-76
2021/07/17 07:17:15;;;;;;;;;;;33.30;72.40;;;;;;1889994;74;20443;-78
2021/07/17 07:19:45;;;;;;;;;;;33.20;72.80;;;;;;1885166;75;20755;-78
2021/07/17 07:22:17;;;;;;;;;;;33.10;73.30;;;;;;1891189;75;20222;-77
2021/07/17 07:24:46;;;;;;;;;;;33.00;73.10;;;;;;1882663;76;20196;-77
2021/07/17 07:27:16;;;;;;;;;;;33.00;74.00;;;;;;1888463;76;20246;-78
2021/07/17 07:29:46;;;;;;;;;;;33.00;75.10;;;;;;1887519;76;20148;-78
2021/07/17 07:32:17;;;;;;;;;;;33.10;73.30;;;;;;1889710;74;20214;-77
2021/07/17 07:34:47;;;;;;;;;;;33.10;73.00;;;;;;1885864;76;20160;-76
2021/07/17 07:37:17;;;;;;;;;;;33.30;71.70;;;;;;1857734;76;20201;-78
2021/07/17 07:39:47;;;;;;;;;;;33.30;70.50;;;;;;1890867;75;20183;-77
2021/07/17 07:42:17;;;;;;;;;;;33.40;70.50;;;;;;1870358;76;20731;-78
2021/07/17 07:44:46;;;;;;;;;;;33.40;71.50;;;;;;1871689;76;20171;-78
2021/07/17 07:47:16;;;;;;;;;;;33.40;73.20;;;;;;1886380;74;20515;-77
2021/07/17 07:49:47;;;;;;;;;;;33.50;71.40;;;;;;1894864;74;20245;-78
2021/07/17 07:52:18;;;;;;;;;;;33.50;70.80;;;;;;1898883;74;20218;-77
2021/07/17 07:54:47;;;;;;;;;;;33.50;70.50;;;;;;1900816;74;20193;-76
2021/07/17 07:57:17;;;;;;;;;;;33.50;70.20;;;;;;1900849;74;20501;-77
2021/07/17 07:59:48;;;;;;;;;;;33.50;70.90;;;;;;1891815;74;20139;-76
2021/07/17 08:02:18;;;;;;;;;;;33.50;71.10;;;;;;1893964;76;20276;-77
2021/07/17 08:04:48;;;;;;;;;;;33.50;72.80;;;;;;1895349;75;20572;-77
2021/07/17 08:07:18;;;;;;;;;;;33.40;71.00;;;;;;1898940;74;20235;-76
2021/07/17 08:09:49;;;;;;;;;;;33.30;70.40;;;;;;1896145;74;20495;-78
2021/07/17 08:12:20;;;;;;;;;;;33.30;70.90;;;;;;1887951;74;20121;-77
2021/07/17 08:14:50;;;;;;;;;;;33.30;70.40;;;;;;1894586;76;20198;-77
2021/07/17 08:17:20;;;;;;;;;;;33.30;70.40;;;;;;1875956;74;20250;-77
2021/07/17 08:19:49;;;;;;;;;;;33.30;70.50;;;;;;1892305;75;20178;-75
2021/07/17 08:22:19;;;;;;;;;;;33.30;70.70;;;;;;1892332;74;20108;-77
2021/07/17 08:24:49;;;;;;;;;;;33.30;71.30;;;;;;1887397;75;20249;-77
2021/07/17 08:27:21;;;;;;;;;;;33.40;71.30;;;;;;1885595;75;20207;-77
2021/07/17 08:29:51;;;;;;;;;;;33.40;70.60;;;;;;1892378;75;20128;-77
2021/07/17 08:32:20;;;;;;;;;;;33.40;69.60;;;;;;1893774;74;20224;-76
2021/07/17 08:34:52;;;;;;;;;;;33.40;69.80;;;;;;1856583;77;20162;-78
2021/07/17 08:37:22;;;;;;;;;;;33.40;70.20;;;;;;1899856;75;20128;-78
2021/07/17 08:39:52;;;;;;;;;;;33.40;70.80;;;;;;1854241;76;21014;-77
2021/07/17 08:42:25;;;;;;;;;;;33.40;71.10;;;;;;1880757;75;20205;-77
2021/07/17 08:44:54;;;;;;;;;;;33.50;71.30;;;;;;1891462;74;20452;-77
2021/07/17 08:47:29;;;;;;;;;;;33.40;71.20;;;;;;1894639;75;20211;-76
2021/07/17 08:49:55;;;;;;;;;;;33.40;69.50;;;;;;1894635;75;20197;-77
2021/07/17 08:52:28;;;;;;;;;;;33.40;70.00;;;;;;1894349;74;20179;-77
2021/07/17 08:55:03;;;;;;;;;;;33.40;70.90;;;;;;1898808;74;20276;-77
2021/07/17 08:57:28;;;;;;;;;;;33.40;69.90;;;;;;1899351;74;20601;-77
2021/07/17 08:59:57;;;;;;;;;;;33.40;70.00;;;;;;1904064;74;20177;-76
2021/07/17 09:02:27;;;;;;;;;;;33.30;69.90;;;;;;1896677;74;20134;-76
2021/07/17 09:04:57;;;;;;;;;;;33.40;70.20;;;;;;1900052;74;20158;-76
2021/07/17 09:07:27;;;;;;;;;;;33.40;70.80;;;;;;1865569;75;20249;-77
2021/07/17 09:09:57;;;;;;;;;;;33.40;69.40;;;;;;1851825;77;20228;-76
2021/07/17 09:12:30;;;;;;;;;;;33.40;69.60;;;;;;1897090;74;20236;-75
2021/07/17 09:14:59;;;;;;;;;;;33.30;70.40;;;;;;1854031;76;20237;-77
2021/07/17 09:17:31;;;;;;;;;;;33.30;70.20;;;;;;1898205;74;20233;-77
2021/07/17 09:20:02;;;;;;;;;;;33.30;69.80;;;;;;1893923;74;20206;-76
2021/07/17 09:22:32;;;;;;;;;;;33.20;70.20;;;;;;1906610;74;20207;-76
2021/07/17 09:25:03;;;;;;;;;;;33.20;70.00;;;;;;1857602;77;20190;-76
2021/07/17 09:27:34;;;;;;;;;;;33.10;70.70;;;;;;1891459;74;20187;-77
2021/07/17 09:30:05;;;;;;;;;;;33.10;71.40;;;;;;1894112;74;20175;-78
2021/07/17 09:32:37;;;;;;;;;;;33.10;71.60;;;;;;1851778;76;20240;-77
2021/07/17 09:35:08;;;;;;;;;;;33.20;71.80;;;;;;1885812;75;20183;-78
2021/07/17 09:37:37;;;;;;;;;;;33.20;71.80;;;;;;1889741;75;20165;-76
2021/07/17 09:40:08;;;;;;;;;;;33.20;71.50;;;;;;1890420;74;20120;-77
2021/07/17 09:42:39;;;;;;;;;;;33.30;71.60;;;;;;1889359;75;20759;-76
2021/07/17 09:45:09;;;;;;;;;;;33.30;71.80;;;;;;1853940;77;20672;-77
2021/07/17 09:47:39;;;;;;;;;;;33.30;71.00;;;;;;1896073;74;20204;-77
2021/07/17 09:50:11;;;;;;;;;;;33.20;70.90;;;;;;1894423;75;20256;-76
2021/07/17 09:52:42;;;;;;;;;;;33.10;70.30;;;;;;1894235;75;20134;-76
2021/07/17 09:55:14;;;;;;;;;;;33.10;71.00;;;;;;1894367;75;20180;-77
2021/07/17 09:57:44;;;;;;;;;;;33.00;72.20;;;;;;1892408;74;20392;-77
2021/07/17 10:00:23;;;;;;;;;;;33.00;72.20;;;;;;1863944;75;20137;-77
2021/07/17 10:02:52;;;;;;;;;;;33.00;72.40;;;;;;1894318;76;20136;-77
2021/07/17 10:05:23;;;;;;;;;;;32.90;72.50;;;;;;1917319;74;20188;-77
2021/07/17 10:07:54;;;;;;;;;;;32.90;72.30;;;;;;1879725;75;20597;-75
2021/07/17 10:10:26;;;;;;;;;;;32.90;72.30;;;;;;1895694;74;20206;-76
2021/07/17 10:12:57;;;;;;;;;;;32.80;73.50;;;;;;1885678;74;20270;-77
2021/07/17 10:15:28;;;;;;;;;;;32.80;72.70;;;;;;1901775;74;20211;-77
2021/07/17 10:17:59;;;;;;;;;;;32.80;72.90;;;;;;1880100;76;20147;-77
2021/07/17 10:20:29;;;;;;;;;;;32.80;73.20;;;;;;1897560;75;20206;-77
2021/07/17 10:22:59;;;;;;;;;;;32.70;73.50;;;;;;1872737;75;20230;-77
2021/07/17 10:25:34;;;;;;;;;;;32.70;73.60;;;;;;1860321;77;20449;-77
2021/07/17 10:28:03;;;;;;;;;;;32.60;73.40;;;;;;1899717;75;20478;-77
2021/07/17 10:30:36;;;;;;;;;;;32.60;74.10;;;;;;1886214;74;20232;-78
2021/07/17 10:33:06;;;;;;;;;;;32.60;74.40;;;;;;1899198;74;20212;-77
2021/07/17 10:35:38;;;;;;;;;;;32.60;74.80;;;;;;1859478;77;20543;-77
2021/07/17 10:38:11;;;;;;;;;;;32.60;74.30;;;;;;1861165;76;20134;-77
2021/07/17 10:40:40;;;;;;;;;;;32.60;74.50;;;;;;1897526;75;20184;-78
2021/07/17 10:43:10;;;;;;;;;;;32.60;75.00;;;;;;1898532;75;20236;-78
2021/07/17 10:45:43;;;;;;;;;;;32.60;75.00;;;;;;1900361;75;20437;-77
2021/07/17 10:48:13;;;;;;;;;;;32.60;75.40;;;;;;1862402;77;20200;-78
2021/07/17 10:50:48;;;;;;;;;;;32.50;75.80;;;;;;1866879;77;20134;-77
2021/07/17 10:53:17;;;;;;;;;;;32.60;76.40;;;;;;1897646;74;20217;-77
2021/07/17 10:55:47;;;;;;;;;;;32.50;76.70;;;;;;1906068;74;20400;-76
2021/07/17 10:58:21;;;;;;;;;;;32.40;76.30;;;;;;1902085;74;20157;-76
2021/07/17 11:00:52;;;;;;;;;;;32.40;76.80;;;;;;1860853;76;20509;-77
2021/07/17 11:03:25;;;;;;;;;;;32.40;76.70;;;;;;1896030;74;20231;-78
2021/07/17 11:05:55;;;;;;;;;;;32.30;76.80;;;;;;1854112;76;20161;-78
2021/07/17 11:08:26;;;;;;;;;;;32.30;77.70;;;;;;1875493;76;20215;-77
2021/07/17 11:10:55;;;;;;;;;;;32.20;77.80;;;;;;1856020;76;20166;-76
2021/07/17 11:13:26;;;;;;;;;;;32.30;77.70;;;;;;1892874;75;20173;-76
2021/07/17 11:15:59;;;;;;;;;;;32.20;77.90;;;;;;1862280;76;20249;-78
2021/07/17 11:18:29;;;;;;;;;;;32.20;77.70;;;;;;1887835;76;20229;-77
2021/07/17 11:20:59;;;;;;;;;;;32.20;78.10;;;;;;1864826;76;20281;-76
2021/07/17 11:23:30;;;;;;;;;;;32.20;78.40;;;;;;1860119;77;20273;-76
2021/07/17 11:26:06;;;;;;;;;;;32.20;78.80;;;;;;1894040;75;20263;-76
2021/07/17 11:28:33;;;;;;;;;;;32.10;78.90;;;;;;1897455;74;20227;-76
2021/07/17 11:31:04;;;;;;;;;;;32.10;79.10;;;;;;1892074;74;20230;-77
2021/07/17 11:33:34;;;;;;;;;;;32.10;79.50;;;;;;1906201;74;20462;-77
2021/07/17 11:36:06;;;;;;;;;;;32.10;79.90;;;;;;1854367;77;20449;-76
2021/07/17 11:38:36;;;;;;;;;;;32.00;79.70;;;;;;1872294;75;20222;-76
2021/07/17 11:41:06;;;;;;;;;;;32.00;80.20;;;;;;1884491;75;20179;-76
2021/07/17 11:43:36;;;;;;;;;;;32.00;80.30;;;;;;1891254;74;20121;-76
2021/07/17 11:46:06;;;;;;;;;;;32.00;80.30;;;;;;1881891;75;20133;-77
2021/07/17 11:48:40;;;;;;;;;;;31.90;80.50;;;;;;1829102;78;20180;-77
2021/07/17 11:51:10;;;;;;;;;;;31.90;80.90;;;;;;1870827;77;20128;-76
2021/07/17 11:53:40;;;;;;;;;;;31.80;81.10;;;;;;1852673;77;20247;-76
2021/07/17 11:56:10;;;;;;;;;;;31.80;81.30;;;;;;1844273;76;20193;-77
2021/07/17 11:58:40;;;;;;;;;;;31.80;81.60;;;;;;1873141;75;20181;-76
2021/07/17 12:01:14;;;;;;;;;;;31.80;81.90;;;;;;1874076;76;20207;-76
2021/07/17 12:03:41;;;;;;;;;;;31.80;82.10;;;;;;1892212;74;20621;-77
2021/07/17 12:06:11;;;;;;;;;;;31.80;85.60;;;;;;1896040;74;20134;-77
2021/07/17 12:08:41;;;;;;;;;;;31.60;87.50;;;;;;1848400;77;20162;-77
2021/07/17 12:11:11;;;;;;;;;;;31.40;88.80;;;;;;1886106;75;20175;-76
2021/07/17 12:13:41;;;;;;;;;;;31.10;89.70;;;;;;1896316;74;20264;-76
2021/07/17 12:16:12;;;;;;;;;;;30.90;90.20;;;;;;1898427;75;20159;-75
2021/07/17 12:18:42;;;;;;;;;;;30.70;90.10;;;;;;1893911;74;20165;-77
2021/07/17 12:21:13;;;;;;;;;;;30.60;90.60;;;;;;1902946;74;20203;-77
2021/07/17 12:23:43;;;;;;;;;;;30.50;91.50;;;;;;1898025;74;20194;-75
2021/07/17 12:26:14;;;;;;;;;;;30.40;91.70;;;;;;1890691;74;20872;-76
2021/07/17 12:28:44;;;;;;;;;;;30.40;90.40;;;;;;1858776;76;20275;-75
2021/07/17 12:31:14;;;;;;;;;;;30.30;91.60;;;;;;1898983;74;20203;-75
2021/07/17 12:33:46;;;;;;;;;;;30.30;92.50;;;;;;1897983;75;20474;-75
2021/07/17 12:36:17;;;;;;;;;;;30.30;93.90;;;;;;1862272;77;20357;-76
2021/07/17 12:38:51;;;;;;;;;;;30.30;93.30;;;;;;1849893;76;20163;-76
2021/07/17 12:41:20;;;;;;;;;;;30.20;93.10;;;;;;1856775;76;20238;-77
2021/07/17 12:43:51;;;;;;;;;;;30.20;92.80;;;;;;1925454;74;20205;-76
2021/07/17 12:46:22;;;;;;;;;;;30.20;93.30;;;;;;1900966;75;20896;-89
2021/07/17 12:48:57;;;;;;;;;;;30.20;93.30;;;;;;1862961;77;20157;-92
2021/07/17 12:51:29;;;;;;;;;;;30.10;93.30;;;;;;1861884;76;20238;-92
2021/07/17 12:54:01;;;;;;;;;;;30.10;93.10;;;;;;1858899;77;20221;-92
2021/07/17 12:56:34;;;;;;;;;;;30.10;93.00;;;;;;1869611;76;20123;-90
2021/07/17 12:59:05;;;;;;;;;;;30.10;92.80;;;;;;1893799;74;20173;-91
2021/07/17 13:01:36;;;;;;;;;;;30.10;92.80;;;;;;1895795;74;20175;-93
2021/07/17 13:04:06;;;;;;;;;;;30.10;92.80;;;;;;1889024;75;20168;-92
2021/07/17 13:06:36;;;;;;;;;;;30.00;92.60;;;;;;1891564;74;20189;-90
2021/07/17 13:09:06;;;;;;;;;;;30.00;92.30;;;;;;1891210;75;20411;-91
2021/07/17 13:11:36;;;;;;;;;;;30.00;92.30;;;;;;1895719;74;20662;-92
2021/07/17 13:14:06;;;;;;;;;;;30.00;92.30;;;;;;1893403;75;20151;-92
2021/07/17 13:16:36;;;;;;;;;;;30.00;92.50;;;;;;1885794;74;20210;-91
2021/07/17 13:19:07;;;;;;;;;;;30.00;92.40;;;;;;1901873;74;20218;-92
2021/07/17 13:21:40;;;;;;;;;;;29.90;92.40;;;;;;1898154;74;20742;-91
2021/07/17 13:24:36;;;;;;;;;;;29.90;92.20;;;;;;1892040;75;20195;-92
2021/07/17 13:26:48;;;;;;;;;;;29.90;92.20;;;;;;1879810;75;20245;-92
2021/07/17 13:29:21;;;;;;;;;;;29.90;92.10;;;;;;1888151;74;20207;-93
2021/07/17 13:31:51;;;;;;;;;;;29.90;92.00;;;;;;1886250;76;20451;-91
2021/07/17 13:34:22;;;;;;;;;;;29.90;92.00;;;;;;1893968;76;20326;-93
2021/07/17 13:36:53;;;;;;;;;;;29.90;91.80;;;;;;1881503;76;20438;-94
2021/07/17 13:39:23;;;;;;;;;;;29.90;91.80;;;;;;1893825;74;20301;-94
2021/07/17 13:42:04;;;;;;;;;;;;;;;;;;;;;
2021/07/17 13:44:28;;;;;;;;;;;29.90;91.80;;;;;;1894469;74;20195;-91
2021/07/17 13:46:59;;;;;;;;;;;29.90;91.70;;;;;;1860598;75;20122;-91
2021/07/17 13:49:33;;;;;;;;;;;29.90;91.90;;;;;;1860499;76;20241;-91
2021/07/17 13:52:04;;;;;;;;;;;29.90;91.80;;;;;;1858871;75;20272;-92
2021/07/17 13:54:35;;;;;;;;;;;29.90;91.80;;;;;;1888283;74;20500;-92
2021/07/17 13:57:06;;;;;;;;;;;29.90;91.90;;;;;;1898765;74;20277;-94
2021/07/17 13:59:35;;;;;;;;;;;29.90;91.90;;;;;;1901851;74;20230;-93
2021/07/17 14:02:08;;;;;;;;;;;29.90;91.90;;;;;;1884107;74;20194;-93
2021/07/17 14:04:38;;;;;;;;;;;29.90;91.90;;;;;;1895930;75;20441;-92
2021/07/17 14:07:08;;;;;;;;;;;29.90;92.00;;;;;;1895242;75;20678;-90
2021/07/17 14:09:39;;;;;;;;;;;29.90;92.00;;;;;;1909473;74;20209;-91
2021/07/17 14:12:09;;;;;;;;;;;29.90;92.10;;;;;;1904396;74;20144;-93
2021/07/17 14:14:38;;;;;;;;;;;29.90;92.00;;;;;;1853761;74;20201;-91
2021/07/17 14:17:08;;;;;;;;;;;29.80;91.80;;;;;;1859304;76;20288;-92
2021/07/17 14:19:37;;;;;;;;;;;29.80;91.90;;;;;;1895504;74;20153;-92
2021/07/17 14:22:07;;;;;;;;;;;29.80;92.10;;;;;;1891558;75;20120;-93
2021/07/17 14:24:38;;;;;;;;;;;29.80;91.90;;;;;;1873170;74;20175;-93
2021/07/17 14:27:10;;;;;;;;;;;29.80;92.00;;;;;;1847378;76;20194;-92
2021/07/17 14:29:44;;;;;;;;;;;29.80;91.60;;;;;;1882846;74;20126;-92
2021/07/17 14:32:13;;;;;;;;;;;29.80;91.70;;;;;;1886412;74;20159;-93
2021/07/17 14:34:43;;;;;;;;;;;29.80;91.60;;;;;;1879278;74;20130;-92
2021/07/17 14:37:15;;;;;;;;;;;29.80;91.70;;;;;;1902080;74;20120;-95